createdAt,value
2023-10-18T00:01:05.804Z,9.97
2023-10-18T00:03:34.177Z,9.48
2023-10-18T00:06:12.835Z,10.43
2023-10-18T00:08:40.378Z,10.73
2023-10-18T00:11:07.467Z,9.50
2023-10-18T00:13:35.110Z,10.97
2023-10-18T00:16:04.158Z,13.00
2023-10-18T00:18:31.399Z,11.30
2023-10-18T00:21:01.057Z,10.82
2023-10-18T00:23:28.761Z,11.15
2023-10-18T00:25:55.924Z,12.07
2023-10-18T00:28:23.232Z,11.05
2023-10-18T00:30:53.226Z,10.07
2023-10-18T00:33:20.617Z,11.80
2023-10-18T00:35:54.619Z,15.13
2023-10-18T00:38:25.460Z,13.67
2023-10-18T00:40:52.760Z,11.45
2023-10-18T00:43:27.968Z,13.63
2023-10-18T00:45:56.549Z,10.98
2023-10-18T00:48:28.812Z,11.30
2023-10-18T00:51:00.290Z,13.57
2023-10-18T00:53:31.875Z,12.88
2023-10-18T00:56:02.411Z,10.20
2023-10-18T00:58:33.412Z,11.20
2023-10-18T01:01:11.924Z,12.63
2023-10-18T01:03:40.352Z,10.70
2023-10-18T01:06:10.169Z,12.52
2023-10-18T01:08:40.638Z,12.60
2023-10-18T01:11:08.907Z,11.85
2023-10-18T01:13:49.186Z,17.77
2023-10-18T01:16:24.536Z,11.80
2023-10-18T01:18:53.994Z,11.98
2023-10-18T01:21:22.021Z,12.48
2023-10-18T01:24:00.811Z,12.23
2023-10-18T01:26:30.093Z,10.63
2023-10-18T01:28:59.640Z,10.20
2023-10-18T01:31:27.629Z,12.98
2023-10-18T01:33:55.126Z,13.02
2023-10-18T01:36:23.126Z,10.75
2023-10-18T01:38:56.380Z,10.95
2023-10-18T01:41:27.282Z,12.40
2023-10-18T01:44:08.991Z,12.13
2023-10-18T01:46:37.722Z,17.02
2023-10-18T01:49:08.453Z,9.73
2023-10-18T01:51:35.957Z,11.27
2023-10-18T01:54:14.364Z,11.73
2023-10-18T01:56:43.547Z,9.52
2023-10-18T01:59:19.000Z,10.70
2023-10-18T02:01:46.967Z,14.68
2023-10-18T02:04:33.098Z,10.07
2023-10-18T02:07:08.718Z,15.20
2023-10-18T02:09:45.452Z,11.73
2023-10-18T02:12:13.381Z,13.18
2023-10-18T02:14:40.563Z,11.68
2023-10-18T02:17:11.283Z,10.93
2023-10-18T02:19:39.406Z,12.20
2023-10-18T02:22:09.398Z,10.95
2023-10-18T02:24:37.376Z,10.95
2023-10-18T02:27:04.816Z,12.45
2023-10-18T02:29:35.881Z,10.68
2023-10-18T02:32:22.195Z,11.73
2023-10-18T02:34:51.299Z,11.55
2023-10-18T02:37:21.165Z,11.13
2023-10-18T02:40:02.600Z,11.13
2023-10-18T02:42:34.182Z,10.18
2023-10-18T02:45:02.265Z,12.00
2023-10-18T02:47:31.166Z,10.38
2023-10-18T02:49:59.872Z,10.07
2023-10-18T02:52:31.130Z,11.93
2023-10-18T02:54:58.718Z,14.75
2023-10-18T02:57:26.151Z,10.13
2023-10-18T02:59:53.455Z,9.75
2023-10-18T03:02:25.456Z,12.32
2023-10-18T03:07:22.828Z,12.25
2023-10-18T03:09:53.122Z,10.53
2023-10-18T03:12:23.462Z,12.38
2023-10-18T03:14:56.833Z,13.65
2023-10-18T03:17:30.507Z,13.75
2023-10-18T03:19:58.452Z,12.75
2023-10-18T03:22:33.178Z,10.50
2023-10-18T03:25:01.070Z,11.63
2023-10-18T03:27:32.153Z,12.07
2023-10-18T03:29:59.910Z,13.40
2023-10-18T03:32:28.056Z,12.05
2023-10-18T03:34:55.556Z,12.43
2023-10-18T03:37:22.906Z,10.13
2023-10-18T03:39:56.653Z,9.63
2023-10-18T03:42:32.920Z,15.13
2023-10-18T03:45:14.741Z,12.05
2023-10-18T03:47:43.122Z,10.33
2023-10-18T03:50:16.476Z,10.90
2023-10-18T03:52:46.631Z,12.15
2023-10-18T03:55:19.100Z,17.27
2023-10-18T03:57:46.763Z,11.05
2023-10-18T04:00:29.725Z,8.57
2023-10-18T04:03:11.947Z,11.90
2023-10-18T04:05:45.676Z,10.00
2023-10-18T04:08:17.476Z,11.52
2023-10-18T04:10:56.581Z,12.02
2023-10-18T04:13:25.670Z,10.83
2023-10-18T04:16:00.897Z,11.05
2023-10-18T04:18:31.279Z,10.23
2023-10-18T04:21:01.561Z,9.35
2023-10-18T04:23:28.858Z,11.60
2023-10-18T04:26:00.279Z,12.30
2023-10-18T04:28:31.233Z,14.35
2023-10-18T04:31:01.820Z,10.25
2023-10-18T04:33:46.386Z,10.77
2023-10-18T04:36:14.507Z,23.05
2023-10-18T04:38:46.390Z,11.80
2023-10-18T04:41:25.445Z,12.35
2023-10-18T04:44:02.479Z,15.40
2023-10-18T04:46:30.768Z,12.32
2023-10-18T04:49:00.927Z,13.30
2023-10-18T04:51:30.059Z,11.27
2023-10-18T04:53:58.796Z,11.90
2023-10-18T04:56:45.350Z,10.73
2023-10-18T04:59:20.445Z,12.23
2023-10-18T05:01:55.408Z,11.20
2023-10-18T05:04:34.593Z,11.83
2023-10-18T05:07:16.353Z,12.60
2023-10-18T05:09:45.449Z,9.80
2023-10-18T05:12:21.108Z,12.00
2023-10-18T05:14:58.997Z,12.02
2023-10-18T05:17:34.091Z,10.50
2023-10-18T05:20:19.316Z,12.68
2023-10-18T05:22:50.212Z,8.70
2023-10-18T05:25:20.466Z,12.98
2023-10-18T05:28:01.526Z,10.52
2023-10-18T05:30:49.713Z,11.10
2023-10-18T05:33:30.982Z,12.35
2023-10-18T05:36:14.051Z,10.45
2023-10-18T05:38:47.928Z,12.23
2023-10-18T05:41:27.619Z,11.00
2023-10-18T05:43:59.850Z,13.73
2023-10-18T05:46:33.110Z,11.88
2023-10-18T05:49:14.785Z,16.52
2023-10-18T05:52:01.817Z,14.00
2023-10-18T05:54:30.149Z,13.25
2023-10-18T05:56:57.645Z,13.83
2023-10-18T05:59:34.270Z,14.10
2023-10-18T06:02:22.036Z,11.60
2023-10-18T06:04:50.242Z,14.43
2023-10-18T06:10:09.514Z,11.87
2023-10-18T06:12:41.781Z,12.77
2023-10-18T06:15:16.688Z,13.02
2023-10-18T06:17:48.803Z,14.32
2023-10-18T06:20:31.945Z,17.98
2023-10-18T06:23:09.609Z,16.13
2023-10-18T06:25:39.323Z,16.98
2023-10-18T06:28:08.683Z,20.02
2023-10-18T06:30:42.692Z,13.45
2023-10-18T06:33:16.881Z,15.90
2023-10-18T06:35:44.693Z,14.60
2023-10-18T06:38:18.327Z,14.65
2023-10-18T06:41:04.689Z,11.63
2023-10-18T06:43:34.113Z,13.68
2023-10-18T06:46:01.910Z,15.70
2023-10-18T06:48:32.041Z,17.40
2023-10-18T06:50:59.589Z,16.15
2023-10-18T06:53:30.901Z,15.07
2023-10-18T06:56:03.510Z,19.40
2023-10-18T06:58:31.423Z,16.42
2023-10-18T07:01:05.746Z,16.43
2023-10-18T07:03:35.206Z,14.48
2023-10-18T07:06:05.615Z,18.33
2023-10-18T07:08:35.892Z,14.93
2023-10-18T07:11:19.016Z,17.27
2023-10-18T07:13:48.509Z,19.00
2023-10-18T07:16:40.237Z,17.90
2023-10-18T07:19:28.494Z,34.53
2023-10-18T07:21:56.550Z,26.25
2023-10-18T07:24:33.637Z,18.90
2023-10-18T07:27:10.179Z,17.60
2023-10-18T07:29:38.334Z,21.30
2023-10-18T07:32:08.565Z,17.35
2023-10-18T07:34:37.937Z,24.02
2023-10-18T07:37:24.627Z,23.08
2023-10-18T07:39:57.944Z,23.50
2023-10-18T07:42:27.764Z,21.27
2023-10-18T07:44:56.769Z,22.00
2023-10-18T07:47:27.282Z,26.45
2023-10-18T07:49:59.290Z,24.52
2023-10-18T07:52:27.421Z,19.20
2023-10-18T07:54:54.730Z,20.73
2023-10-18T07:57:30.969Z,18.40
2023-10-18T08:00:18.166Z,18.50
2023-10-18T08:02:45.554Z,18.80
2023-10-18T08:05:13.376Z,14.67
2023-10-18T08:07:40.738Z,21.25
2023-10-18T08:10:10.132Z,17.00
2023-10-18T08:12:37.351Z,15.68
2023-10-18T08:15:15.217Z,17.52
2023-10-18T08:17:45.651Z,19.33
2023-10-18T08:20:25.474Z,16.27
2023-10-18T08:22:52.788Z,16.98
2023-10-18T08:25:23.265Z,16.98
2023-10-18T08:27:53.751Z,10.52
2023-10-18T08:30:40.246Z,10.37
2023-10-18T08:33:07.640Z,12.63
2023-10-18T08:35:35.554Z,10.20
2023-10-18T08:38:02.968Z,10.82
2023-10-18T08:40:36.542Z,12.13
2023-10-18T08:43:13.585Z,7.57
2023-10-18T08:45:50.016Z,9.85
2023-10-18T08:48:18.826Z,10.65
2023-10-18T08:50:47.801Z,10.82
2023-10-18T08:53:16.445Z,11.13
2023-10-18T08:55:45.177Z,8.23
2023-10-18T08:58:21.401Z,12.10
2023-10-18T09:00:48.592Z,7.18
2023-10-18T09:03:16.141Z,10.60
2023-10-18T09:05:43.600Z,8.07
2023-10-18T09:08:20.366Z,8.77
2023-10-18T09:10:55.935Z,9.85
2023-10-18T09:13:25.745Z,8.38
2023-10-18T09:16:02.743Z,6.95
2023-10-18T09:18:34.385Z,11.80
2023-10-18T09:21:13.784Z,7.07
2023-10-18T09:23:42.112Z,10.80
2023-10-18T09:26:12.109Z,9.48
2023-10-18T09:28:43.107Z,8.43
2023-10-18T09:31:22.516Z,8.23
2023-10-18T09:33:51.183Z,8.40
2023-10-18T09:36:22.117Z,9.18
2023-10-18T09:38:50.065Z,3.63
2023-10-18T09:41:18.519Z,9.20
2023-10-18T09:43:47.939Z,6.82
2023-10-18T09:46:16.772Z,6.80
2023-10-18T09:48:45.681Z,7.18
2023-10-18T09:51:17.536Z,6.60
2023-10-18T09:53:50.600Z,6.97
2023-10-18T09:56:26.008Z,5.20
2023-10-18T09:59:05.535Z,7.13
2023-10-18T10:01:45.349Z,7.93
2023-10-18T10:04:15.725Z,7.22
2023-10-18T10:06:46.922Z,7.18
2023-10-18T10:09:18.720Z,6.78
2023-10-18T10:11:48.410Z,8.50
2023-10-18T10:14:23.022Z,8.50
2023-10-18T10:17:02.952Z,6.40
2023-10-18T10:19:33.815Z,6.25
2023-10-18T10:22:07.715Z,9.50
2023-10-18T10:24:43.563Z,5.23
2023-10-18T10:27:34.327Z,6.88
2023-10-18T10:30:12.510Z,8.35
2023-10-18T10:32:40.440Z,5.97
2023-10-18T10:35:25.377Z,6.40
2023-10-18T10:37:54.099Z,6.73
2023-10-18T10:40:31.907Z,9.15
2023-10-18T10:43:15.888Z,8.23
2023-10-18T10:45:48.115Z,7.93
2023-10-18T10:48:26.944Z,7.43
2023-10-18T10:51:21.261Z,7.17
2023-10-18T10:53:58.889Z,8.00
2023-10-18T10:56:28.170Z,6.00
2023-10-18T10:59:05.402Z,5.80
2023-10-18T11:01:45.383Z,6.25
2023-10-18T11:04:25.860Z,7.13
2023-10-18T11:07:02.254Z,7.97
2023-10-18T11:09:34.264Z,8.50
2023-10-18T11:12:09.234Z,6.15
2023-10-18T11:14:39.554Z,6.15
2023-10-18T11:17:18.935Z,6.70
2023-10-18T11:19:54.727Z,6.18
2023-10-18T11:22:24.259Z,7.60
2023-10-18T11:24:52.400Z,5.55
2023-10-18T11:27:23.596Z,6.07
2023-10-18T11:30:05.244Z,5.40
2023-10-18T11:32:32.640Z,6.18
2023-10-18T11:35:14.282Z,5.78
2023-10-18T11:37:45.825Z,5.75
2023-10-18T11:40:32.374Z,6.10
2023-10-18T11:43:09.978Z,7.53
2023-10-18T11:45:41.670Z,6.65
2023-10-18T11:48:15.616Z,5.90
2023-10-18T11:50:52.038Z,6.45
2023-10-18T11:53:24.353Z,8.18
2023-10-18T11:56:06.176Z,6.23
2023-10-18T11:58:35.312Z,6.85
2023-10-18T12:01:17.625Z,7.50
2023-10-18T12:03:45.513Z,9.70
2023-10-18T12:06:13.026Z,6.25
2023-10-18T12:09:03.256Z,5.83
2023-10-18T12:11:30.347Z,8.73
2023-10-18T12:13:57.442Z,6.85
2023-10-18T12:16:24.742Z,5.97
2023-10-18T12:18:53.394Z,9.68
2023-10-18T12:21:30.381Z,6.63
2023-10-18T12:23:58.239Z,6.63
2023-10-18T12:26:28.553Z,6.60
2023-10-18T12:28:58.241Z,9.23
2023-10-18T12:31:28.315Z,9.38
2023-10-18T12:34:00.268Z,6.13
2023-10-18T12:36:39.788Z,9.35
2023-10-18T12:39:11.039Z,6.50
2023-10-18T12:41:41.345Z,6.35
2023-10-18T12:44:12.887Z,6.35
2023-10-18T12:46:42.302Z,13.13
2023-10-18T12:49:12.593Z,8.35
2023-10-18T12:51:43.469Z,7.07
2023-10-18T12:54:21.239Z,6.72
2023-10-18T12:57:09.063Z,7.97
2023-10-18T12:59:59.726Z,11.50
2023-10-18T13:02:45.684Z,9.55
2023-10-18T13:05:13.372Z,8.80
2023-10-18T13:07:45.336Z,10.43
2023-10-18T13:10:13.476Z,8.45
2023-10-18T13:12:55.006Z,8.90
2023-10-18T13:15:27.051Z,7.43
2023-10-18T13:17:54.293Z,6.53
2023-10-18T13:20:26.022Z,8.70
2023-10-18T13:22:57.489Z,8.38
2023-10-18T13:25:38.141Z,7.03
2023-10-18T13:28:06.920Z,7.38
2023-10-18T13:30:40.911Z,8.25
2023-10-18T13:33:14.120Z,7.28
2023-10-18T13:35:41.459Z,6.57
2023-10-18T13:38:09.221Z,11.50
2023-10-18T13:40:38.159Z,11.70
2023-10-18T13:43:06.445Z,11.30
2023-10-18T13:45:34.767Z,8.60
2023-10-18T13:48:03.809Z,7.88
2023-10-18T13:50:39.095Z,10.70
2023-10-18T13:53:08.244Z,8.38
2023-10-18T13:55:37.731Z,9.23
2023-10-18T13:58:07.632Z,10.63
2023-10-18T14:00:36.454Z,9.13
2023-10-18T14:03:04.231Z,7.40
2023-10-18T14:05:32.436Z,12.70
2023-10-18T14:08:00.215Z,8.85
2023-10-18T14:10:33.185Z,6.95
2023-10-18T14:13:00.323Z,7.30
2023-10-18T14:15:28.188Z,7.30
2023-10-18T14:17:56.224Z,8.43
2023-10-18T14:20:26.745Z,9.50
2023-10-18T14:22:57.809Z,9.77
2023-10-18T14:25:26.750Z,7.60
2023-10-18T14:27:54.232Z,9.20
2023-10-18T14:30:21.882Z,8.30
2023-10-18T14:32:49.182Z,6.82
2023-10-18T14:35:18.050Z,9.43
2023-10-18T14:37:46.910Z,7.47
2023-10-18T14:40:14.351Z,7.97
2023-10-18T14:42:41.499Z,7.38
2023-10-18T14:45:13.232Z,6.97
2023-10-18T14:47:40.603Z,6.28
2023-10-18T14:50:08.269Z,8.55
2023-10-18T14:52:35.583Z,7.30
2023-10-18T14:55:05.727Z,8.48
2023-10-18T14:57:32.862Z,7.57
2023-10-18T14:59:59.999Z,7.47
2023-10-18T15:02:27.288Z,7.95
2023-10-18T15:04:54.468Z,6.67
2023-10-18T15:07:21.826Z,8.00
2023-10-18T15:09:48.967Z,8.05
2023-10-18T15:12:19.075Z,9.05
2023-10-18T15:14:46.352Z,10.90
2023-10-18T15:17:13.633Z,10.87
2023-10-18T15:19:41.613Z,8.52
2023-10-18T15:22:11.429Z,10.75
2023-10-18T15:24:44.462Z,16.00
2023-10-18T15:27:14.095Z,10.30
2023-10-18T15:29:41.433Z,12.10
2023-10-18T15:32:09.322Z,10.27
2023-10-18T15:34:36.935Z,10.90
2023-10-18T15:37:07.630Z,10.15
2023-10-18T15:39:35.063Z,9.57
2023-10-18T15:42:02.290Z,10.33
2023-10-18T15:44:31.683Z,13.88
2023-10-18T15:47:01.115Z,16.45
2023-10-18T15:49:29.969Z,9.68
2023-10-18T15:51:58.127Z,13.68
2023-10-18T15:54:25.286Z,12.37
2023-10-18T15:56:52.688Z,11.90
2023-10-18T15:59:20.191Z,12.43
2023-10-18T16:01:58.654Z,12.98
2023-10-18T16:04:28.964Z,12.70
2023-10-18T16:06:56.943Z,12.70
2023-10-18T16:09:24.272Z,11.65
2023-10-18T16:11:51.402Z,18.73
2023-10-18T16:14:18.530Z,11.40
2023-10-18T16:16:45.897Z,14.48
2023-10-18T16:19:13.192Z,14.47
2023-10-18T16:21:43.360Z,14.90
2023-10-18T16:24:10.964Z,13.57
2023-10-18T16:26:38.948Z,16.58
2023-10-18T16:29:07.216Z,15.25
2023-10-18T16:31:34.934Z,11.53
2023-10-18T16:34:02.257Z,14.02
2023-10-18T16:36:29.476Z,14.05
2023-10-18T16:38:58.290Z,23.23
2023-10-18T16:41:28.143Z,13.85
2023-10-18T16:43:55.945Z,15.43
2023-10-18T16:46:23.202Z,12.30
2023-10-18T16:48:51.322Z,14.18
2023-10-18T16:51:18.934Z,17.55
2023-10-18T16:53:47.419Z,12.43
2023-10-18T16:56:15.868Z,14.00
2023-10-18T16:58:43.376Z,13.80
2023-10-18T17:01:18.404Z,14.10
2023-10-18T17:03:48.550Z,15.25
2023-10-18T17:06:17.170Z,14.57
2023-10-18T17:08:45.479Z,17.67
2023-10-18T17:11:14.393Z,17.35
2023-10-18T17:13:45.942Z,15.60
2023-10-18T17:16:18.944Z,17.83
2023-10-18T17:18:46.704Z,14.00
2023-10-18T17:23:45.201Z,16.50
2023-10-18T17:26:13.136Z,15.88
2023-10-18T17:28:40.626Z,16.13
2023-10-18T17:31:07.768Z,13.43
2023-10-18T17:33:34.936Z,15.00
2023-10-18T17:36:02.227Z,17.00
2023-10-18T17:38:29.440Z,15.07
2023-10-18T17:40:56.605Z,17.08
2023-10-18T17:43:23.841Z,15.02
2023-10-18T17:45:51.476Z,16.23
2023-10-18T17:48:19.249Z,15.93
2023-10-18T17:50:47.663Z,17.50
2023-10-18T17:53:15.702Z,16.98
2023-10-18T17:55:44.275Z,16.17
2023-10-18T17:58:14.471Z,13.20
2023-10-18T18:00:45.528Z,20.38
2023-10-18T18:03:15.073Z,18.70
2023-10-18T18:05:45.619Z,15.38
2023-10-18T18:08:13.993Z,14.93
2023-10-18T18:10:49.306Z,16.63
2023-10-18T18:13:20.609Z,18.15
2023-10-18T18:15:50.526Z,15.55
2023-10-18T18:18:19.862Z,19.27
2023-10-18T18:20:50.119Z,15.85
2023-10-18T18:23:17.823Z,17.20
2023-10-18T18:25:47.288Z,20.00
2023-10-18T18:28:15.773Z,18.90
2023-10-18T18:30:45.131Z,17.50
2023-10-18T18:33:13.329Z,20.27
2023-10-18T18:35:41.831Z,17.37
2023-10-18T18:38:09.436Z,16.60
2023-10-18T18:40:37.260Z,21.13
2023-10-18T18:43:04.569Z,16.90
2023-10-18T18:45:31.938Z,20.40
2023-10-18T18:47:59.147Z,17.00
2023-10-18T18:50:28.214Z,19.85
2023-10-18T18:52:55.390Z,16.10
2023-10-18T18:55:22.668Z,18.95
2023-10-18T18:57:51.798Z,17.70
2023-10-18T19:00:21.466Z,19.07
2023-10-18T19:02:52.445Z,20.33
2023-10-18T19:05:20.114Z,16.67
2023-10-18T19:07:47.550Z,17.05
2023-10-18T19:10:16.222Z,16.77
2023-10-18T19:12:44.402Z,14.97
2023-10-18T19:15:12.378Z,16.15
2023-10-18T19:17:40.266Z,16.83
2023-10-18T19:20:12.715Z,14.73
2023-10-18T19:22:40.708Z,16.13
2023-10-18T19:25:08.130Z,18.40
2023-10-18T19:27:35.820Z,15.02
2023-10-18T19:30:11.098Z,14.77
2023-10-18T19:32:39.343Z,14.75
2023-10-18T19:35:10.564Z,14.38
2023-10-18T19:37:38.892Z,19.07
2023-10-18T19:40:08.307Z,18.40
2023-10-18T19:42:37.214Z,16.88
2023-10-18T19:45:05.069Z,14.60
2023-10-18T19:47:32.676Z,14.13
2023-10-18T19:50:03.660Z,16.17
2023-10-18T19:52:31.044Z,15.35
2023-10-18T19:54:59.258Z,13.38
2023-10-18T19:57:27.282Z,15.48
2023-10-18T19:59:55.160Z,14.48
2023-10-18T20:02:22.452Z,13.77
2023-10-18T20:04:49.628Z,14.90
2023-10-18T20:07:17.057Z,15.05
2023-10-18T20:09:45.069Z,13.68
2023-10-18T20:12:12.678Z,14.85
2023-10-18T20:14:39.908Z,15.23
2023-10-18T20:17:10.160Z,14.27
2023-10-18T20:19:37.249Z,12.80
2023-10-18T20:22:05.908Z,14.82
2023-10-18T20:24:33.123Z,14.25
2023-10-18T20:27:00.424Z,17.67
2023-10-18T20:29:27.571Z,15.23
2023-10-18T20:31:55.233Z,14.18
2023-10-18T20:34:23.276Z,13.98
2023-10-18T20:36:50.409Z,12.20
2023-10-18T20:39:18.524Z,13.77
2023-10-18T20:41:46.267Z,16.23
2023-10-18T20:44:19.853Z,11.60
2023-10-18T20:46:49.852Z,15.15
2023-10-18T20:49:23.650Z,13.25
2023-10-18T20:51:50.828Z,11.47
2023-10-18T20:54:21.385Z,12.65
2023-10-18T20:56:55.136Z,11.73
2023-10-18T20:59:32.617Z,14.93
2023-10-18T21:02:07.434Z,11.57
2023-10-18T21:04:34.855Z,12.53
2023-10-18T21:07:01.993Z,12.65
2023-10-18T21:09:32.206Z,11.70
2023-10-18T21:12:00.853Z,14.85
2023-10-18T21:14:28.289Z,11.48
2023-10-18T21:16:56.520Z,14.93
2023-10-18T21:19:23.930Z,11.48
2023-10-18T21:21:51.195Z,11.82
2023-10-18T21:24:18.290Z,12.73
2023-10-18T21:26:46.960Z,13.27
2023-10-18T21:29:14.272Z,10.13
2023-10-18T21:31:43.452Z,12.48
2023-10-18T21:34:10.756Z,12.48
2023-10-18T21:36:38.090Z,9.48
2023-10-18T21:39:07.407Z,11.25
2023-10-18T21:41:36.013Z,11.03
2023-10-18T21:44:04.973Z,11.75
2023-10-18T21:46:35.493Z,10.55
2023-10-18T21:49:02.952Z,13.00
2023-10-18T21:51:30.099Z,16.25
2023-10-18T21:53:57.946Z,12.33
2023-10-18T21:56:25.130Z,12.05
2023-10-18T21:58:52.560Z,10.93
2023-10-18T22:01:43.048Z,11.85
2023-10-18T22:04:10.773Z,11.10
2023-10-18T22:06:40.084Z,12.53
2023-10-18T22:09:32.616Z,9.88
2023-10-18T22:12:05.876Z,11.70
2023-10-18T22:14:33.202Z,10.80
2023-10-18T22:17:06.572Z,12.60
2023-10-18T22:19:34.532Z,10.33
2023-10-18T22:22:21.246Z,10.43
2023-10-18T22:24:49.100Z,11.38
2023-10-18T22:27:20.132Z,10.57
2023-10-18T22:29:51.516Z,8.68
2023-10-18T22:32:20.723Z,9.63
2023-10-18T22:34:51.638Z,10.88
2023-10-18T22:37:22.013Z,10.48
2023-10-18T22:39:53.234Z,13.40
2023-10-18T22:42:24.541Z,10.55
2023-10-18T22:45:10.294Z,11.10
2023-10-18T22:47:52.265Z,12.15
2023-10-18T22:50:39.217Z,11.30
2023-10-18T22:53:24.841Z,10.38
2023-10-18T22:55:57.907Z,8.30
2023-10-18T22:58:27.768Z,11.53
2023-10-18T23:00:55.059Z,10.40
2023-10-18T23:03:25.889Z,11.77
2023-10-18T23:06:08.901Z,11.10
2023-10-18T23:08:39.444Z,8.93
2023-10-18T23:11:34.504Z,11.83
2023-10-18T23:14:10.368Z,14.48
2023-10-18T23:16:57.508Z,10.00
2023-10-18T23:19:27.364Z,16.23
2023-10-18T23:21:58.297Z,10.48
2023-10-18T23:24:28.115Z,12.63
2023-10-18T23:27:13.906Z,11.13
2023-10-18T23:29:41.446Z,10.00
2023-10-18T23:32:30.613Z,11.95
2023-10-18T23:35:21.736Z,8.85
2023-10-18T23:37:55.947Z,11.33
2023-10-18T23:40:27.290Z,11.05
2023-10-18T23:43:10.580Z,8.45
2023-10-18T23:45:42.431Z,11.00
2023-10-18T23:48:28.344Z,11.73
2023-10-18T23:51:14.229Z,12.00
2023-10-18T23:53:47.344Z,9.88
2023-10-18T23:56:15.229Z,11.48
2023-10-18T23:58:43.387Z,11.88
